sensor_id;sensor_type;location;lat;lon;timestamp;P1;durP1;ratioP1;P2;durP2;ratioP2
46415;SDS011;32620;51.704;7.822;2023-04-03T00:01:35;6.25;;;2.03;;
46415;SDS011;32620;51.704;7.822;2023-04-03T00:04:03;8.75;;;2.47;;
46415;SDS011;32620;51.704;7.822;2023-04-03T00:06:29;6.65;;;2.35;;
46415;SDS011;32620;51.704;7.822;2023-04-03T00:08:54;6.88;;;2.80;;
46415;SDS011;32620;51.704;7.822;2023-04-03T00:11:20;6.80;;;2.28;;
46415;SDS011;32620;51.704;7.822;2023-04-03T00:13:46;8.18;;;2.60;;
46415;SDS011;32620;51.704;7.822;2023-04-03T00:16:12;5.05;;;2.13;;
46415;SDS011;32620;51.704;7.822;2023-04-03T00:18:38;6.55;;;2.30;;
46415;SDS011;32620;51.704;7.822;2023-04-03T00:21:04;12.15;;;2.63;;
46415;SDS011;32620;51.704;7.822;2023-04-03T00:23:30;5.43;;;2.30;;
46415;SDS011;32620;51.704;7.822;2023-04-03T00:25:56;10.70;;;2.10;;
46415;SDS011;32620;51.704;7.822;2023-04-03T00:28:22;4.95;;;2.22;;
46415;SDS011;32620;51.704;7.822;2023-04-03T00:30:48;6.70;;;2.60;;
46415;SDS011;32620;51.704;7.822;2023-04-03T00:33:15;5.97;;;2.20;;
46415;SDS011;32620;51.704;7.822;2023-04-03T00:35:41;7.55;;;2.75;;
46415;SDS011;32620;51.704;7.822;2023-04-03T00:38:06;7.35;;;2.40;;
46415;SDS011;32620;51.704;7.822;2023-04-03T00:40:33;4.45;;;2.28;;
46415;SDS011;32620;51.704;7.822;2023-04-03T00:43:02;5.50;;;2.17;;
46415;SDS011;32620;51.704;7.822;2023-04-03T00:45:37;6.45;;;2.78;;
46415;SDS011;32620;51.704;7.822;2023-04-03T00:48:07;5.22;;;2.08;;
46415;SDS011;32620;51.704;7.822;2023-04-03T00:50:35;6.47;;;2.30;;
46415;SDS011;32620;51.704;7.822;2023-04-03T00:53:04;8.30;;;2.50;;
46415;SDS011;32620;51.704;7.822;2023-04-03T00:55:31;4.30;;;2.22;;
46415;SDS011;32620;51.704;7.822;2023-04-03T00:57:57;9.70;;;2.40;;
46415;SDS011;32620;51.704;7.822;2023-04-03T01:00:25;6.15;;;2.55;;
46415;SDS011;32620;51.704;7.822;2023-04-03T01:02:51;7.50;;;2.22;;
46415;SDS011;32620;51.704;7.822;2023-04-03T01:05:17;8.27;;;2.05;;
46415;SDS011;32620;51.704;7.822;2023-04-03T01:07:45;8.45;;;2.30;;
46415;SDS011;32620;51.704;7.822;2023-04-03T01:10:12;7.00;;;2.00;;
46415;SDS011;32620;51.704;7.822;2023-04-03T01:12:42;9.20;;;3.25;;
46415;SDS011;32620;51.704;7.822;2023-04-03T01:15:11;7.55;;;2.50;;
46415;SDS011;32620;51.704;7.822;2023-04-03T01:17:41;5.18;;;2.40;;
46415;SDS011;32620;51.704;7.822;2023-04-03T01:25:47;4.15;;;2.20;;
46415;SDS011;32620;51.704;7.822;2023-04-03T01:28:17;5.03;;;2.60;;
46415;SDS011;32620;51.704;7.822;2023-04-03T01:30:51;5.75;;;2.45;;
46415;SDS011;32620;51.704;7.822;2023-04-03T01:33:25;4.65;;;2.13;;
46415;SDS011;32620;51.704;7.822;2023-04-03T01:35:51;8.25;;;2.13;;
46415;SDS011;32620;51.704;7.822;2023-04-03T01:38:16;6.13;;;2.10;;
46415;SDS011;32620;51.704;7.822;2023-04-03T01:40:42;10.15;;;2.60;;
46415;SDS011;32620;51.704;7.822;2023-04-03T01:43:08;8.45;;;3.05;;
46415;SDS011;32620;51.704;7.822;2023-04-03T01:45:34;9.40;;;2.33;;
46415;SDS011;32620;51.704;7.822;2023-04-03T01:47:59;5.47;;;2.13;;
46415;SDS011;32620;51.704;7.822;2023-04-03T01:50:25;6.45;;;1.92;;
46415;SDS011;32620;51.704;7.822;2023-04-03T01:52:51;4.05;;;1.90;;
46415;SDS011;32620;51.704;7.822;2023-04-03T01:55:16;6.00;;;2.40;;
46415;SDS011;32620;51.704;7.822;2023-04-03T01:57:42;6.93;;;2.08;;
46415;SDS011;32620;51.704;7.822;2023-04-03T02:00:07;5.80;;;1.83;;
46415;SDS011;32620;51.704;7.822;2023-04-03T02:02:34;4.55;;;2.60;;
46415;SDS011;32620;51.704;7.822;2023-04-03T02:04:59;9.43;;;2.75;;
46415;SDS011;32620;51.704;7.822;2023-04-03T02:07:25;4.55;;;1.90;;
46415;SDS011;32620;51.704;7.822;2023-04-03T02:09:51;5.25;;;2.08;;
46415;SDS011;32620;51.704;7.822;2023-04-03T02:12:16;6.32;;;2.42;;
46415;SDS011;32620;51.704;7.822;2023-04-03T02:14:42;9.80;;;2.58;;
46415;SDS011;32620;51.704;7.822;2023-04-03T02:17:07;6.32;;;2.35;;
46415;SDS011;32620;51.704;7.822;2023-04-03T02:19:34;10.63;;;2.78;;
46415;SDS011;32620;51.704;7.822;2023-04-03T02:22:00;6.40;;;2.33;;
46415;SDS011;32620;51.704;7.822;2023-04-03T02:24:27;7.10;;;2.25;;
46415;SDS011;32620;51.704;7.822;2023-04-03T02:26:52;10.65;;;2.88;;
46415;SDS011;32620;51.704;7.822;2023-04-03T02:29:18;12.30;;;3.65;;
46415;SDS011;32620;51.704;7.822;2023-04-03T02:31:44;6.72;;;2.30;;
46415;SDS011;32620;51.704;7.822;2023-04-03T02:34:10;9.95;;;2.78;;
46415;SDS011;32620;51.704;7.822;2023-04-03T02:36:35;5.88;;;2.55;;
46415;SDS011;32620;51.704;7.822;2023-04-03T02:39:01;6.60;;;3.00;;
46415;SDS011;32620;51.704;7.822;2023-04-03T02:41:27;11.30;;;2.47;;
46415;SDS011;32620;51.704;7.822;2023-04-03T02:43:58;8.80;;;3.40;;
46415;SDS011;32620;51.704;7.822;2023-04-03T02:46:24;7.65;;;2.60;;
46415;SDS011;32620;51.704;7.822;2023-04-03T02:48:50;9.20;;;2.40;;
46415;SDS011;32620;51.704;7.822;2023-04-03T02:51:15;8.18;;;3.05;;
46415;SDS011;32620;51.704;7.822;2023-04-03T02:53:41;7.00;;;2.70;;
46415;SDS011;32620;51.704;7.822;2023-04-03T02:56:06;11.02;;;2.88;;
46415;SDS011;32620;51.704;7.822;2023-04-03T02:58:32;4.20;;;2.28;;
46415;SDS011;32620;51.704;7.822;2023-04-03T03:00:57;10.25;;;2.80;;
46415;SDS011;32620;51.704;7.822;2023-04-03T03:03:23;8.02;;;2.67;;
46415;SDS011;32620;51.704;7.822;2023-04-03T03:05:48;11.77;;;2.90;;
46415;SDS011;32620;51.704;7.822;2023-04-03T03:08:14;6.07;;;2.00;;
46415;SDS011;32620;51.704;7.822;2023-04-03T03:10:40;6.25;;;2.20;;
46415;SDS011;32620;51.704;7.822;2023-04-03T03:13:05;9.98;;;3.08;;
46415;SDS011;32620;51.704;7.822;2023-04-03T03:15:31;10.27;;;2.70;;
46415;SDS011;32620;51.704;7.822;2023-04-03T03:17:56;7.35;;;2.35;;
46415;SDS011;32620;51.704;7.822;2023-04-03T03:20:22;10.15;;;2.67;;
46415;SDS011;32620;51.704;7.822;2023-04-03T03:22:47;6.85;;;2.33;;
46415;SDS011;32620;51.704;7.822;2023-04-03T03:25:13;10.15;;;3.25;;
46415;SDS011;32620;51.704;7.822;2023-04-03T03:27:38;10.48;;;3.28;;
46415;SDS011;32620;51.704;7.822;2023-04-03T03:30:04;10.85;;;3.35;;
46415;SDS011;32620;51.704;7.822;2023-04-03T03:32:30;13.85;;;3.20;;
46415;SDS011;32620;51.704;7.822;2023-04-03T03:34:56;8.38;;;3.42;;
46415;SDS011;32620;51.704;7.822;2023-04-03T03:37:21;9.32;;;3.20;;
46415;SDS011;32620;51.704;7.822;2023-04-03T03:39:47;11.48;;;3.95;;
46415;SDS011;32620;51.704;7.822;2023-04-03T03:42:12;11.77;;;3.80;;
46415;SDS011;32620;51.704;7.822;2023-04-03T03:44:38;11.93;;;3.60;;
46415;SDS011;32620;51.704;7.822;2023-04-03T03:47:04;11.50;;;3.88;;
46415;SDS011;32620;51.704;7.822;2023-04-03T03:49:31;17.02;;;3.58;;
46415;SDS011;32620;51.704;7.822;2023-04-03T03:51:56;7.38;;;2.28;;
46415;SDS011;32620;51.704;7.822;2023-04-03T03:54:22;8.95;;;2.50;;
46415;SDS011;32620;51.704;7.822;2023-04-03T03:56:47;7.80;;;2.90;;
46415;SDS011;32620;51.704;7.822;2023-04-03T03:59:13;6.53;;;2.80;;
46415;SDS011;32620;51.704;7.822;2023-04-03T04:01:38;10.27;;;2.63;;
46415;SDS011;32620;51.704;7.822;2023-04-03T04:04:04;11.38;;;2.97;;
46415;SDS011;32620;51.704;7.822;2023-04-03T04:06:30;8.85;;;2.97;;
46415;SDS011;32620;51.704;7.822;2023-04-03T04:08:55;10.10;;;2.63;;
46415;SDS011;32620;51.704;7.822;2023-04-03T04:11:21;8.77;;;3.25;;
46415;SDS011;32620;51.704;7.822;2023-04-03T04:13:47;10.43;;;2.90;;
46415;SDS011;32620;51.704;7.822;2023-04-03T04:16:12;7.97;;;2.92;;
46415;SDS011;32620;51.704;7.822;2023-04-03T04:18:38;14.20;;;3.60;;
46415;SDS011;32620;51.704;7.822;2023-04-03T04:21:03;8.73;;;3.60;;
46415;SDS011;32620;51.704;7.822;2023-04-03T04:23:29;9.32;;;3.17;;
46415;SDS011;32620;51.704;7.822;2023-04-03T04:25:54;10.35;;;3.60;;
46415;SDS011;32620;51.704;7.822;2023-04-03T04:28:20;9.40;;;3.95;;
46415;SDS011;32620;51.704;7.822;2023-04-03T04:30:46;12.07;;;3.75;;
46415;SDS011;32620;51.704;7.822;2023-04-03T04:33:11;12.82;;;4.25;;
46415;SDS011;32620;51.704;7.822;2023-04-03T04:35:38;11.48;;;4.00;;
46415;SDS011;32620;51.704;7.822;2023-04-03T04:38:04;9.68;;;3.55;;
46415;SDS011;32620;51.704;7.822;2023-04-03T04:40:30;12.55;;;4.30;;
46415;SDS011;32620;51.704;7.822;2023-04-03T04:42:55;8.32;;;3.55;;
46415;SDS011;32620;51.704;7.822;2023-04-03T04:45:21;7.85;;;3.58;;
46415;SDS011;32620;51.704;7.822;2023-04-03T04:47:46;10.73;;;3.70;;
46415;SDS011;32620;51.704;7.822;2023-04-03T04:50:12;11.70;;;3.80;;
46415;SDS011;32620;51.704;7.822;2023-04-03T04:52:38;12.25;;;4.50;;
46415;SDS011;32620;51.704;7.822;2023-04-03T04:55:04;11.15;;;4.28;;
46415;SDS011;32620;51.704;7.822;2023-04-03T04:57:30;11.10;;;4.03;;
46415;SDS011;32620;51.704;7.822;2023-04-03T04:59:55;12.45;;;4.15;;
46415;SDS011;32620;51.704;7.822;2023-04-03T05:02:21;10.43;;;3.67;;
46415;SDS011;32620;51.704;7.822;2023-04-03T05:04:46;10.38;;;3.67;;
46415;SDS011;32620;51.704;7.822;2023-04-03T05:07:12;10.13;;;3.40;;
46415;SDS011;32620;51.704;7.822;2023-04-03T05:09:38;15.13;;;3.28;;
46415;SDS011;32620;51.704;7.822;2023-04-03T05:12:03;10.93;;;3.40;;
46415;SDS011;32620;51.704;7.822;2023-04-03T05:14:29;9.98;;;3.05;;
46415;SDS011;32620;51.704;7.822;2023-04-03T05:16:55;9.73;;;3.75;;
46415;SDS011;32620;51.704;7.822;2023-04-03T05:19:21;9.50;;;2.95;;
46415;SDS011;32620;51.704;7.822;2023-04-03T05:21:47;7.38;;;3.17;;
46415;SDS011;32620;51.704;7.822;2023-04-03T05:24:13;9.30;;;3.92;;
46415;SDS011;32620;51.704;7.822;2023-04-03T05:26:39;8.43;;;3.30;;
46415;SDS011;32620;51.704;7.822;2023-04-03T05:29:05;7.90;;;3.15;;
46415;SDS011;32620;51.704;7.822;2023-04-03T05:31:31;11.02;;;3.30;;
46415;SDS011;32620;51.704;7.822;2023-04-03T05:33:56;10.38;;;3.15;;
46415;SDS011;32620;51.704;7.822;2023-04-03T05:36:23;11.27;;;3.63;;
46415;SDS011;32620;51.704;7.822;2023-04-03T05:38:48;8.15;;;3.03;;
46415;SDS011;32620;51.704;7.822;2023-04-03T05:41:14;14.45;;;2.70;;
46415;SDS011;32620;51.704;7.822;2023-04-03T05:43:41;10.73;;;3.10;;
46415;SDS011;32620;51.704;7.822;2023-04-03T05:46:09;11.90;;;3.92;;
46415;SDS011;32620;51.704;7.822;2023-04-03T05:48:36;6.60;;;2.90;;
46415;SDS011;32620;51.704;7.822;2023-04-03T05:51:02;7.20;;;2.78;;
46415;SDS011;32620;51.704;7.822;2023-04-03T05:53:28;8.95;;;3.17;;
46415;SDS011;32620;51.704;7.822;2023-04-03T05:55:56;9.32;;;3.20;;
46415;SDS011;32620;51.704;7.822;2023-04-03T05:58:21;7.38;;;2.60;;
46415;SDS011;32620;51.704;7.822;2023-04-03T06:00:47;6.03;;;2.60;;
46415;SDS011;32620;51.704;7.822;2023-04-03T06:03:13;8.23;;;2.72;;
46415;SDS011;32620;51.704;7.822;2023-04-03T06:05:38;8.40;;;3.17;;
46415;SDS011;32620;51.704;7.822;2023-04-03T06:08:04;9.90;;;2.90;;
46415;SDS011;32620;51.704;7.822;2023-04-03T06:10:30;6.40;;;3.20;;
46415;SDS011;32620;51.704;7.822;2023-04-03T06:12:56;5.45;;;2.70;;
46415;SDS011;32620;51.704;7.822;2023-04-03T06:15:21;7.70;;;2.60;;
46415;SDS011;32620;51.704;7.822;2023-04-03T06:17:47;7.65;;;3.15;;
46415;SDS011;32620;51.704;7.822;2023-04-03T06:20:13;8.27;;;2.55;;
46415;SDS011;32620;51.704;7.822;2023-04-03T06:22:38;7.85;;;2.47;;
46415;SDS011;32620;51.704;7.822;2023-04-03T06:25:05;7.80;;;3.03;;
46415;SDS011;32620;51.704;7.822;2023-04-03T06:27:31;10.48;;;3.35;;
46415;SDS011;32620;51.704;7.822;2023-04-03T06:29:56;8.48;;;2.80;;
46415;SDS011;32620;51.704;7.822;2023-04-03T06:32:22;5.95;;;2.63;;
46415;SDS011;32620;51.704;7.822;2023-04-03T06:34:48;7.20;;;3.08;;
46415;SDS011;32620;51.704;7.822;2023-04-03T06:37:20;8.75;;;3.00;;
46415;SDS011;32620;51.704;7.822;2023-04-03T06:39:47;8.32;;;3.17;;
46415;SDS011;32620;51.704;7.822;2023-04-03T06:42:12;9.63;;;3.53;;
46415;SDS011;32620;51.704;7.822;2023-04-03T06:44:38;9.00;;;3.35;;
46415;SDS011;32620;51.704;7.822;2023-04-03T06:47:04;8.85;;;3.10;;
46415;SDS011;32620;51.704;7.822;2023-04-03T06:49:30;9.40;;;3.83;;
46415;SDS011;32620;51.704;7.822;2023-04-03T06:51:56;11.30;;;3.55;;
46415;SDS011;32620;51.704;7.822;2023-04-03T06:54:22;8.13;;;3.40;;
46415;SDS011;32620;51.704;7.822;2023-04-03T06:56:48;6.18;;;3.17;;
46415;SDS011;32620;51.704;7.822;2023-04-03T06:59:14;8.68;;;3.47;;
46415;SDS011;32620;51.704;7.822;2023-04-03T07:01:41;6.47;;;3.05;;
46415;SDS011;32620;51.704;7.822;2023-04-03T07:04:07;8.73;;;3.40;;
46415;SDS011;32620;51.704;7.822;2023-04-03T07:06:33;9.23;;;2.92;;
46415;SDS011;32620;51.704;7.822;2023-04-03T07:08:59;7.13;;;2.83;;
46415;SDS011;32620;51.704;7.822;2023-04-03T07:11:25;8.23;;;2.80;;
46415;SDS011;32620;51.704;7.822;2023-04-03T07:13:51;7.47;;;3.05;;
46415;SDS011;32620;51.704;7.822;2023-04-03T07:16:17;8.88;;;2.50;;
46415;SDS011;32620;51.704;7.822;2023-04-03T07:18:43;5.97;;;2.22;;
46415;SDS011;32620;51.704;7.822;2023-04-03T07:21:09;7.45;;;2.40;;
46415;SDS011;32620;51.704;7.822;2023-04-03T07:23:35;5.60;;;2.78;;
46415;SDS011;32620;51.704;7.822;2023-04-03T07:26:01;6.82;;;2.40;;
46415;SDS011;32620;51.704;7.822;2023-04-03T07:28:26;8.35;;;2.70;;
46415;SDS011;32620;51.704;7.822;2023-04-03T07:30:53;4.95;;;2.53;;
46415;SDS011;32620;51.704;7.822;2023-04-03T07:33:28;5.95;;;2.20;;
46415;SDS011;32620;51.704;7.822;2023-04-03T07:35:56;8.45;;;2.28;;
46415;SDS011;32620;51.704;7.822;2023-04-03T07:38:21;6.03;;;2.00;;
46415;SDS011;32620;51.704;7.822;2023-04-03T07:40:48;4.25;;;1.90;;
46415;SDS011;32620;51.704;7.822;2023-04-03T07:43:15;6.85;;;2.60;;
46415;SDS011;32620;51.704;7.822;2023-04-03T07:45:42;4.03;;;1.90;;
46415;SDS011;32620;51.704;7.822;2023-04-03T07:48:08;5.72;;;2.00;;
46415;SDS011;32620;51.704;7.822;2023-04-03T07:50:35;6.63;;;2.50;;
46415;SDS011;32620;51.704;7.822;2023-04-03T07:53:01;8.25;;;2.42;;
46415;SDS011;32620;51.704;7.822;2023-04-03T07:55:27;6.00;;;2.00;;
46415;SDS011;32620;51.704;7.822;2023-04-03T07:57:53;5.38;;;1.98;;
46415;SDS011;32620;51.704;7.822;2023-04-03T08:00:19;4.72;;;1.92;;
46415;SDS011;32620;51.704;7.822;2023-04-03T08:02:45;4.72;;;1.92;;
46415;SDS011;32620;51.704;7.822;2023-04-03T08:05:15;6.13;;;2.42;;
46415;SDS011;32620;51.704;7.822;2023-04-03T08:07:42;6.45;;;2.30;;
46415;SDS011;32620;51.704;7.822;2023-04-03T08:10:07;4.50;;;2.15;;
46415;SDS011;32620;51.704;7.822;2023-04-03T08:12:33;7.13;;;2.25;;
46415;SDS011;32620;51.704;7.822;2023-04-03T08:14:59;6.47;;;2.33;;
46415;SDS011;32620;51.704;7.822;2023-04-03T08:17:26;6.75;;;2.45;;
46415;SDS011;32620;51.704;7.822;2023-04-03T08:19:51;4.13;;;1.90;;
46415;SDS011;32620;51.704;7.822;2023-04-03T08:22:17;5.80;;;2.55;;
46415;SDS011;32620;51.704;7.822;2023-04-03T08:24:43;4.80;;;2.50;;
46415;SDS011;32620;51.704;7.822;2023-04-03T08:27:08;3.70;;;2.00;;
46415;SDS011;32620;51.704;7.822;2023-04-03T08:29:34;4.20;;;2.00;;
46415;SDS011;32620;51.704;7.822;2023-04-03T08:31:59;6.15;;;2.10;;
46415;SDS011;32620;51.704;7.822;2023-04-03T08:34:25;5.88;;;2.35;;
46415;SDS011;32620;51.704;7.822;2023-04-03T08:36:51;3.35;;;1.85;;
46415;SDS011;32620;51.704;7.822;2023-04-03T08:39:16;5.63;;;2.33;;
46415;SDS011;32620;51.704;7.822;2023-04-03T08:41:42;4.55;;;2.15;;
46415;SDS011;32620;51.704;7.822;2023-04-03T08:44:22;8.85;;;2.35;;
46415;SDS011;32620;51.704;7.822;2023-04-03T08:52:41;3.95;;;1.75;;
46415;SDS011;32620;51.704;7.822;2023-04-03T08:55:27;5.25;;;2.20;;
46415;SDS011;32620;51.704;7.822;2023-04-03T08:57:59;5.95;;;1.90;;
46415;SDS011;32620;51.704;7.822;2023-04-03T09:00:29;4.10;;;1.90;;
46415;SDS011;32620;51.704;7.822;2023-04-03T09:02:59;5.20;;;2.30;;
46415;SDS011;32620;51.704;7.822;2023-04-03T09:05:35;4.80;;;1.90;;
46415;SDS011;32620;51.704;7.822;2023-04-03T09:11:06;5.13;;;1.70;;
46415;SDS011;32620;51.704;7.822;2023-04-03T09:13:54;3.60;;;1.70;;
46415;SDS011;32620;51.704;7.822;2023-04-03T09:16:37;4.03;;;1.52;;
46415;SDS011;32620;51.704;7.822;2023-04-03T09:22:38;4.05;;;1.38;;
46415;SDS011;32620;51.704;7.822;2023-04-03T09:24:58;6.50;;;1.65;;
46415;SDS011;32620;51.704;7.822;2023-04-03T09:27:35;4.18;;;1.50;;
46415;SDS011;32620;51.704;7.822;2023-04-03T09:30:00;4.25;;;1.67;;
46415;SDS011;32620;51.704;7.822;2023-04-03T09:32:28;5.38;;;1.40;;
46415;SDS011;32620;51.704;7.822;2023-04-03T09:34:56;2.78;;;1.20;;
46415;SDS011;32620;51.704;7.822;2023-04-03T09:37:34;2.45;;;1.40;;
46415;SDS011;32620;51.704;7.822;2023-04-03T09:40:03;4.95;;;1.63;;
46415;SDS011;32620;51.704;7.822;2023-04-03T09:42:30;3.13;;;1.45;;
46415;SDS011;32620;51.704;7.822;2023-04-03T09:44:59;3.83;;;1.50;;
46415;SDS011;32620;51.704;7.822;2023-04-03T09:47:30;3.40;;;1.52;;
46415;SDS011;32620;51.704;7.822;2023-04-03T09:50:18;3.38;;;1.38;;
46415;SDS011;32620;51.704;7.822;2023-04-03T09:52:47;5.07;;;1.27;;
46415;SDS011;32620;51.704;7.822;2023-04-03T09:55:18;3.28;;;1.40;;
46415;SDS011;32620;51.704;7.822;2023-04-03T09:57:51;2.50;;;1.42;;
46415;SDS011;32620;51.704;7.822;2023-04-03T10:00:19;4.55;;;1.38;;
46415;SDS011;32620;51.704;7.822;2023-04-03T10:02:50;2.55;;;1.10;;
46415;SDS011;32620;51.704;7.822;2023-04-03T10:08:21;3.60;;;1.55;;
46415;SDS011;32620;51.704;7.822;2023-04-03T10:11:04;4.63;;;1.40;;
46415;SDS011;32620;51.704;7.822;2023-04-03T10:13:34;4.68;;;1.50;;
46415;SDS011;32620;51.704;7.822;2023-04-03T10:16:02;2.97;;;1.20;;
46415;SDS011;32620;51.704;7.822;2023-04-03T10:18:39;4.60;;;1.55;;
46415;SDS011;32620;51.704;7.822;2023-04-03T10:21:11;4.55;;;1.55;;
46415;SDS011;32620;51.704;7.822;2023-04-03T10:23:51;7.05;;;1.55;;
46415;SDS011;32620;51.704;7.822;2023-04-03T10:26:29;5.45;;;1.60;;
46415;SDS011;32620;51.704;7.822;2023-04-03T10:29:21;2.30;;;1.10;;
46415;SDS011;32620;51.704;7.822;2023-04-03T10:32:22;4.47;;;1.23;;
46415;SDS011;32620;51.704;7.822;2023-04-03T10:35:32;4.30;;;1.67;;
46415;SDS011;32620;51.704;7.822;2023-04-03T10:38:08;2.22;;;1.08;;
46415;SDS011;32620;51.704;7.822;2023-04-03T10:40:59;3.63;;;1.40;;
46415;SDS011;32620;51.704;7.822;2023-04-03T10:46:36;4.93;;;1.58;;
46415;SDS011;32620;51.704;7.822;2023-04-03T10:49:17;3.67;;;1.38;;
46415;SDS011;32620;51.704;7.822;2023-04-03T10:51:57;3.15;;;1.20;;
46415;SDS011;32620;51.704;7.822;2023-04-03T10:54:48;2.20;;;1.17;;
46415;SDS011;32620;51.704;7.822;2023-04-03T10:57:21;3.63;;;1.45;;
46415;SDS011;32620;51.704;7.822;2023-04-03T10:59:50;3.08;;;1.48;;
46415;SDS011;32620;51.704;7.822;2023-04-03T11:02:23;3.67;;;1.33;;
46415;SDS011;32620;51.704;7.822;2023-04-03T11:04:55;7.88;;;1.30;;
46415;SDS011;32620;51.704;7.822;2023-04-03T11:07:26;4.72;;;1.40;;
46415;SDS011;32620;51.704;7.822;2023-04-03T11:10:00;5.30;;;1.40;;
46415;SDS011;32620;51.704;7.822;2023-04-03T11:12:46;4.45;;;1.42;;
46415;SDS011;32620;51.704;7.822;2023-04-03T11:15:29;5.32;;;1.42;;
46415;SDS011;32620;51.704;7.822;2023-04-03T11:17:58;4.20;;;1.55;;
46415;SDS011;32620;51.704;7.822;2023-04-03T11:20:29;5.32;;;1.30;;
46415;SDS011;32620;51.704;7.822;2023-04-03T11:25:51;5.30;;;1.50;;
46415;SDS011;32620;51.704;7.822;2023-04-03T11:28:18;4.72;;;1.40;;
46415;SDS011;32620;51.704;7.822;2023-04-03T11:30:55;2.70;;;1.30;;
46415;SDS011;32620;51.704;7.822;2023-04-03T11:33:55;3.97;;;1.30;;
46415;SDS011;32620;51.704;7.822;2023-04-03T11:36:48;4.40;;;1.30;;
46415;SDS011;32620;51.704;7.822;2023-04-03T11:39:31;3.47;;;1.17;;
46415;SDS011;32620;51.704;7.822;2023-04-03T11:45:36;2.60;;;1.30;;
46415;SDS011;32620;51.704;7.822;2023-04-03T11:48:02;4.60;;;1.25;;
46415;SDS011;32620;51.704;7.822;2023-04-03T11:50:56;3.20;;;1.10;;
46415;SDS011;32620;51.704;7.822;2023-04-03T12:04:22;2.92;;;1.08;;
46415;SDS011;32620;51.704;7.822;2023-04-03T12:07:20;1.75;;;1.13;;
46415;SDS011;32620;51.704;7.822;2023-04-03T12:12:24;4.72;;;1.23;;
46415;SDS011;32620;51.704;7.822;2023-04-03T12:14:55;3.05;;;1.35;;
46415;SDS011;32620;51.704;7.822;2023-04-03T12:17:56;2.92;;;1.30;;
46415;SDS011;32620;51.704;7.822;2023-04-03T12:23:26;5.65;;;1.25;;
46415;SDS011;32620;51.704;7.822;2023-04-03T12:26:26;6.80;;;1.45;;
46415;SDS011;32620;51.704;7.822;2023-04-03T12:28:46;5.82;;;1.30;;
46415;SDS011;32620;51.704;7.822;2023-04-03T12:31:13;4.40;;;1.45;;
46415;SDS011;32620;51.704;7.822;2023-04-03T12:36:52;2.72;;;1.27;;
46415;SDS011;32620;51.704;7.822;2023-04-03T12:39:44;3.33;;;1.40;;
46415;SDS011;32620;51.704;7.822;2023-04-03T12:42:29;4.97;;;1.60;;
46415;SDS011;32620;51.704;7.822;2023-04-03T12:45:19;5.45;;;1.50;;
46415;SDS011;32620;51.704;7.822;2023-04-03T12:47:48;5.30;;;1.52;;
46415;SDS011;32620;51.704;7.822;2023-04-03T12:50:31;3.53;;;1.45;;
46415;SDS011;32620;51.704;7.822;2023-04-03T12:53:06;3.10;;;1.23;;
46415;SDS011;32620;51.704;7.822;2023-04-03T12:55:37;2.13;;;1.17;;
46415;SDS011;32620;51.704;7.822;2023-04-03T12:58:34;4.70;;;1.52;;
46415;SDS011;32620;51.704;7.822;2023-04-03T13:00:59;2.90;;;1.33;;
46415;SDS011;32620;51.704;7.822;2023-04-03T13:03:27;2.35;;;1.20;;
46415;SDS011;32620;51.704;7.822;2023-04-03T13:05:55;3.45;;;1.40;;
46415;SDS011;32620;51.704;7.822;2023-04-03T13:08:25;4.60;;;1.50;;
46415;SDS011;32620;51.704;7.822;2023-04-03T13:10:53;7.82;;;1.80;;
46415;SDS011;32620;51.704;7.822;2023-04-03T13:13:22;5.32;;;1.90;;
46415;SDS011;32620;51.704;7.822;2023-04-03T13:15:48;3.28;;;1.77;;
46415;SDS011;32620;51.704;7.822;2023-04-03T13:18:31;3.65;;;1.23;;
46415;SDS011;32620;51.704;7.822;2023-04-03T13:21:07;3.45;;;1.80;;
46415;SDS011;32620;51.704;7.822;2023-04-03T13:23:39;5.70;;;1.70;;
46415;SDS011;32620;51.704;7.822;2023-04-03T13:26:08;5.30;;;1.75;;
46415;SDS011;32620;51.704;7.822;2023-04-03T13:28:34;3.78;;;1.63;;
46415;SDS011;32620;51.704;7.822;2023-04-03T13:31:04;4.28;;;1.65;;
46415;SDS011;32620;51.704;7.822;2023-04-03T13:34:01;2.63;;;1.40;;
46415;SDS011;32620;51.704;7.822;2023-04-03T13:36:36;4.05;;;1.65;;
46415;SDS011;32620;51.704;7.822;2023-04-03T13:41:48;4.00;;;1.60;;
46415;SDS011;32620;51.704;7.822;2023-04-03T13:46:55;5.15;;;1.90;;
46415;SDS011;32620;51.704;7.822;2023-04-03T13:52:17;5.65;;;1.60;;
46415;SDS011;32620;51.704;7.822;2023-04-03T13:54:53;3.35;;;1.73;;
46415;SDS011;32620;51.704;7.822;2023-04-03T13:57:21;4.07;;;1.60;;
46415;SDS011;32620;51.704;7.822;2023-04-03T13:59:47;8.00;;;1.70;;
46415;SDS011;32620;51.704;7.822;2023-04-03T14:02:46;6.13;;;1.73;;
46415;SDS011;32620;51.704;7.822;2023-04-03T14:04:59;3.63;;;1.98;;
46415;SDS011;32620;51.704;7.822;2023-04-03T14:07:27;6.93;;;1.90;;
46415;SDS011;32620;51.704;7.822;2023-04-03T14:09:54;4.13;;;1.52;;
46415;SDS011;32620;51.704;7.822;2023-04-03T14:12:24;4.97;;;1.90;;
46415;SDS011;32620;51.704;7.822;2023-04-03T14:14:54;4.07;;;1.65;;
46415;SDS011;32620;51.704;7.822;2023-04-03T14:17:22;3.67;;;1.50;;
46415;SDS011;32620;51.704;7.822;2023-04-03T14:19:49;4.70;;;1.67;;
46415;SDS011;32620;51.704;7.822;2023-04-03T14:22:20;2.83;;;1.65;;
46415;SDS011;32620;51.704;7.822;2023-04-03T14:24:50;9.30;;;2.17;;
46415;SDS011;32620;51.704;7.822;2023-04-03T14:27:18;6.28;;;1.90;;
46415;SDS011;32620;51.704;7.822;2023-04-03T14:29:47;3.88;;;1.65;;
46415;SDS011;32620;51.704;7.822;2023-04-03T14:32:15;4.60;;;1.70;;
46415;SDS011;32620;51.704;7.822;2023-04-03T14:34:42;4.65;;;1.50;;
46415;SDS011;32620;51.704;7.822;2023-04-03T14:37:13;3.40;;;1.55;;
46415;SDS011;32620;51.704;7.822;2023-04-03T14:39:41;6.28;;;1.80;;
46415;SDS011;32620;51.704;7.822;2023-04-03T14:42:10;3.83;;;2.00;;
46415;SDS011;32620;51.704;7.822;2023-04-03T14:44:38;4.07;;;1.90;;
46415;SDS011;32620;51.704;7.822;2023-04-03T14:47:04;4.70;;;1.58;;
46415;SDS011;32620;51.704;7.822;2023-04-03T14:49:29;4.13;;;1.85;;
46415;SDS011;32620;51.704;7.822;2023-04-03T14:51:56;4.72;;;1.48;;
46415;SDS011;32620;51.704;7.822;2023-04-03T14:54:22;3.22;;;1.55;;
46415;SDS011;32620;51.704;7.822;2023-04-03T14:56:53;4.20;;;1.80;;
46415;SDS011;32620;51.704;7.822;2023-04-03T14:59:20;4.75;;;1.55;;
46415;SDS011;32620;51.704;7.822;2023-04-03T15:01:47;4.30;;;1.40;;
46415;SDS011;32620;51.704;7.822;2023-04-03T15:04:14;6.72;;;1.80;;
46415;SDS011;32620;51.704;7.822;2023-04-03T15:06:41;3.15;;;1.60;;
46415;SDS011;32620;51.704;7.822;2023-04-03T15:09:12;2.88;;;1.60;;
46415;SDS011;32620;51.704;7.822;2023-04-03T15:11:45;4.22;;;1.50;;
46415;SDS011;32620;51.704;7.822;2023-04-03T15:14:11;4.28;;;1.77;;
46415;SDS011;32620;51.704;7.822;2023-04-03T15:16:36;4.38;;;1.40;;
46415;SDS011;32620;51.704;7.822;2023-04-03T15:19:02;5.05;;;1.50;;
46415;SDS011;32620;51.704;7.822;2023-04-03T15:21:27;4.72;;;2.35;;
46415;SDS011;32620;51.704;7.822;2023-04-03T15:23:53;5.53;;;2.30;;
46415;SDS011;32620;51.704;7.822;2023-04-03T15:26:19;6.35;;;2.08;;
46415;SDS011;32620;51.704;7.822;2023-04-03T15:28:45;4.50;;;1.88;;
46415;SDS011;32620;51.704;7.822;2023-04-03T15:31:11;2.28;;;1.55;;
46415;SDS011;32620;51.704;7.822;2023-04-03T15:33:37;5.15;;;1.58;;
46415;SDS011;32620;51.704;7.822;2023-04-03T15:36:03;5.53;;;1.65;;
46415;SDS011;32620;51.704;7.822;2023-04-03T15:38:29;4.97;;;1.60;;
46415;SDS011;32620;51.704;7.822;2023-04-03T15:40:55;3.50;;;1.60;;
46415;SDS011;32620;51.704;7.822;2023-04-03T15:43:21;3.90;;;1.70;;
46415;SDS011;32620;51.704;7.822;2023-04-03T15:45:47;6.45;;;2.00;;
46415;SDS011;32620;51.704;7.822;2023-04-03T15:48:14;2.75;;;1.60;;
46415;SDS011;32620;51.704;7.822;2023-04-03T15:50:41;4.05;;;1.63;;
46415;SDS011;32620;51.704;7.822;2023-04-03T15:53:07;4.47;;;1.73;;
46415;SDS011;32620;51.704;7.822;2023-04-03T15:55:35;5.38;;;1.88;;